Time;durP1;ratioP1;P1;durP2;ratioP2;P2;SDS_P1;SDS_P2;PMS_P1;PMS_P2;Temp;Humidity;BMP_temperature;BMP_pressure;BME280_temperature;BME280_humidity;BME280_pressure;Samples;Min_cycle;Max_cycle;Signal;HPM_P1;HPM_P2
2022/03/01 00:00:21;;;;;;;21.67;12.67;;;;;;;5.65;49.98;102740.97;5201563;28;20073;-76
2022/03/01 00:02:52;;;;;;;21.23;12.47;;;;;;;5.56;50.27;102732.38;5211227;28;20026;-75
2022/03/01 00:05:23;;;;;;;18.97;12.43;;;;;;;5.50;51.19;102735.00;5197359;28;20068;-75
2022/03/01 00:07:54;;;;;;;16.87;11.67;;;;;;;5.54;51.07;102736.72;5218498;28;20428;-76
2022/03/01 00:10:26;;;;;;;22.40;14.53;;;;;;;5.57;51.57;102744.47;5198532;28;20868;-71
2022/03/01 00:12:57;;;;;;;17.33;12.10;;;;;;;5.53;50.71;102734.97;5198861;28;20516;-74
2022/03/01 00:15:28;;;;;;;17.07;11.17;;;;;;;5.40;51.26;102734.22;5203328;28;20540;-74
2022/03/01 00:17:59;;;;;;;20.70;12.40;;;;;;;5.60;50.88;102730.63;5204799;28;20037;-74
2022/03/01 00:20:31;;;;;;;20.27;12.70;;;;;;;5.55;50.71;102742.78;5198950;28;20028;-73
2022/03/01 00:23:02;;;;;;;18.97;11.70;;;;;;;5.45;51.89;102737.66;5198383;28;20033;-74
2022/03/01 00:25:34;;;;;;;17.43;12.57;;;;;;;5.54;51.08;102736.72;5198898;28;20537;-75
2022/03/01 00:28:05;;;;;;;15.17;11.57;;;;;;;5.39;51.65;102735.09;5198438;28;20701;-74
2022/03/01 00:30:36;;;;;;;18.40;12.60;;;;;;;5.39;51.16;102731.63;5198432;28;20044;-74
2022/03/01 00:33:07;;;;;;;27.03;13.47;;;;;;;5.44;52.15;102732.47;5199216;28;20045;-75
2022/03/01 00:35:39;;;;;;;15.90;11.37;;;;;;;5.27;51.22;102723.03;5215633;28;20041;-71
2022/03/01 00:38:10;;;;;;;20.93;12.87;;;;;;;5.17;52.22;102731.78;5210637;28;20456;-72
2022/03/01 00:40:41;;;;;;;20.53;13.23;;;;;;;5.01;51.77;102729.25;5202069;28;21623;-73
2022/03/01 00:43:13;;;;;;;20.87;12.53;;;;;;;5.17;51.31;102731.78;5201210;28;20049;-73
2022/03/01 00:45:44;;;;;;;15.93;11.27;;;;;;;5.13;51.94;102730.91;5202278;28;20034;-73
2022/03/01 00:48:15;;;;;;;19.17;12.80;;;;;;;5.08;53.04;102733.56;5202380;28;20108;-73
2022/03/01 00:50:47;;;;;;;17.37;12.60;;;;;;;4.86;53.04;102734.53;5201668;28;20048;-73
2022/03/01 00:53:19;;;;;;;18.60;12.50;;;;;;;5.03;52.17;102734.44;5201591;28;20038;-72
2022/03/01 00:55:50;;;;;;;18.83;12.00;;;;;;;4.78;53.30;102714.66;5202281;28;20097;-71
2022/03/01 00:58:21;;;;;;;18.63;12.03;;;;;;;4.75;53.11;102732.88;5203597;28;20022;-77
2022/03/01 01:00:52;;;;;;;17.67;11.70;;;;;;;4.79;52.72;102726.81;5203469;28;20080;-76
2022/03/01 01:03:24;;;;;;;20.07;11.17;;;;;;;4.82;52.37;102736.28;5199542;28;20036;-78
2022/03/01 01:05:55;;;;;;;19.67;13.07;;;;;;;4.76;53.28;102734.59;5203516;28;20054;-77
2022/03/01 01:08:26;;;;;;;17.20;12.43;;;;;;;4.82;52.86;102726.78;5203100;28;20057;-77
2022/03/01 01:10:58;;;;;;;15.70;10.80;;;;;;;4.72;52.91;102730.28;5202236;28;20061;-76
2022/03/01 01:13:30;;;;;;;17.67;12.37;;;;;;;4.75;52.89;102732.88;5200286;28;20504;-76
2022/03/01 01:16:02;;;;;;;17.23;12.43;;;;;;;4.86;52.46;102718.97;5201646;28;20030;-74
2022/03/01 01:18:33;;;;;;;19.67;11.73;;;;;;;4.78;52.40;102732.84;5200217;28;20661;-75
2022/03/01 01:21:04;;;;;;;18.87;12.33;;;;;;;4.74;52.94;102733.75;5200666;28;20045;-83
2022/03/01 01:23:36;;;;;;;17.90;12.50;;;;;;;4.71;52.79;102729.41;5199412;28;20053;-75
2022/03/01 01:26:07;;;;;;;18.00;12.53;;;;;;;4.69;53.14;102738.97;5215083;28;20049;-75
2022/03/01 01:28:39;;;;;;;17.80;12.30;;;;;;;4.66;54.25;102731.16;5201799;28;20040;-75
2022/03/01 01:31:10;;;;;;;17.27;12.27;;;;;;;4.48;54.50;102716.56;5201016;28;20037;-74
2022/03/01 01:33:41;;;;;;;19.17;12.33;;;;;;;4.70;53.53;102727.69;5201456;28;20038;-74
2022/03/01 01:36:12;;;;;;;16.93;12.03;;;;;;;4.50;54.16;102730.38;5202382;28;20026;-74
2022/03/01 01:38:43;;;;;;;20.37;12.17;;;;;;;4.54;54.14;102737.28;5201128;28;20116;-74
2022/03/01 01:41:15;;;;;;;20.77;12.77;;;;;;;4.66;53.83;102735.53;5198817;28;20037;-74
2022/03/01 01:43:46;;;;;;;14.33;10.90;;;;;;;4.48;54.37;102714.84;5209821;28;20038;-75
2022/03/01 01:46:17;;;;;;;16.53;10.97;;;;;;;4.50;53.47;102732.13;5211014;28;20037;-74
2022/03/01 01:48:48;;;;;;;21.73;13.40;;;;;;;4.55;53.99;102733.84;5225463;28;20040;-75
2022/03/01 01:51:20;;;;;;;16.60;11.73;;;;;;;4.52;52.35;102735.56;5232363;28;20090;-75
2022/03/01 01:53:52;;;;;;;16.43;11.77;;;;;;;4.29;53.14;102716.63;5210339;28;20026;-75
2022/03/01 01:56:23;;;;;;;18.90;12.10;;;;;;;4.49;54.06;102723.47;5211806;28;20108;-74
2022/03/01 01:58:55;;;;;;;19.97;12.57;;;;;;;4.51;54.51;102726.91;5210569;28;20113;-74
2022/03/01 02:01:26;;;;;;;21.90;12.10;;;;;;;4.40;54.99;102718.31;5211455;28;20037;-74
2022/03/01 02:03:59;;;;;;;19.80;12.13;;;;;;;4.55;52.68;102715.66;5211427;28;20109;-74
2022/03/01 02:06:30;;;;;;;19.73;12.67;;;;;;;4.60;53.63;102710.44;5211056;28;20049;-74
2022/03/01 02:09:02;;;;;;;19.33;12.33;;;;;;;4.56;53.84;102722.56;5211158;28;20030;-75
2022/03/01 02:11:34;;;;;;;19.67;12.43;;;;;;;4.56;53.61;102709.59;5201341;22;20030;-75
2022/03/01 02:14:05;;;;;;;17.40;12.37;;;;;;;4.57;52.60;102726.88;5210386;28;20753;-74
2022/03/01 02:16:37;;;;;;;18.77;11.50;;;;;;;4.48;53.23;102719.16;5193748;28;20124;-74
2022/03/01 02:19:12;;;;;;;18.10;12.50;;;;;;;4.63;52.06;102712.16;5211281;28;20076;-75
2022/03/01 02:21:51;;;;;;;20.47;12.40;;;;;;;4.55;54.69;102722.56;5211292;28;20040;-74
2022/03/01 02:24:26;;;;;;;18.77;12.30;;;;;;;4.49;52.71;102718.28;5211221;28;20022;-74
2022/03/01 02:27:02;;;;;;;18.97;11.77;;;;;;;4.56;53.51;102722.56;5192226;28;20036;-74
2022/03/01 02:29:34;;;;;;;19.63;12.93;;;;;;;4.62;53.04;102726.00;5208777;28;20037;-74
2022/03/01 02:32:08;;;;;;;16.90;12.23;;;;;;;4.66;54.09;102730.34;5188801;28;20517;-74
2022/03/01 02:34:40;;;;;;;16.55;12.07;;;;;;;4.67;52.88;102724.25;5189696;28;20073;-74
2022/03/01 02:37:11;;;;;;;17.13;11.53;;;;;;;4.60;52.26;102723.44;5188860;28;20058;-74
2022/03/01 02:39:43;;;;;;;18.37;11.57;;;;;;;4.54;53.69;102710.50;5189575;28;20026;-74
2022/03/01 02:42:14;;;;;;;17.53;11.83;;;;;;;4.62;52.88;102718.22;5188407;28;20034;-74
2022/03/01 02:44:46;;;;;;;14.87;11.33;;;;;;;4.51;54.30;102711.34;5189313;28;20068;-74
2022/03/01 02:47:17;;;;;;;17.47;11.73;;;;;;;4.50;52.17;102709.63;5189760;28;20389;-74
2022/03/01 02:49:49;;;;;;;18.60;11.53;;;;;;;4.42;52.56;102703.59;5190446;28;20038;-74
2022/03/01 02:52:20;;;;;;;19.00;10.60;;;;;;;4.60;51.30;102713.03;5190599;28;20152;-74
2022/03/01 02:54:52;;;;;;;17.80;12.23;;;;;;;4.57;51.18;102706.13;5197853;28;20030;-74
2022/03/01 02:57:24;;;;;;;18.77;10.73;;;;;;;4.71;50.83;102692.25;5210595;28;20025;-74
2022/03/01 02:59:56;;;;;;;18.23;11.60;;;;;;;4.72;50.02;102689.63;5209900;28;20026;-74
2022/03/01 03:02:28;;;;;;;16.60;10.33;;;;;;;4.74;50.14;102687.03;5209537;28;20041;-74
2022/03/01 03:04:59;;;;;;;19.03;11.53;;;;;;;4.77;50.83;102688.72;5210684;28;20026;-74
2022/03/01 03:07:30;;;;;;;15.47;10.80;;;;;;;4.95;50.51;102695.56;5210094;28;20033;-74
2022/03/01 03:10:03;;;;;;;17.90;11.70;;;;;;;5.01;49.77;102692.06;5209901;28;20040;-74
2022/03/01 03:12:34;;;;;;;16.40;11.40;;;;;;;4.90;51.09;102694.72;5210674;28;20501;-74
2022/03/01 03:15:06;;;;;;;21.03;11.80;;;;;;;4.77;51.94;102697.38;5209278;28;20037;-74
2022/03/01 03:17:38;;;;;;;14.90;10.10;;;;;;;4.82;50.89;102673.97;5210195;28;20021;-74
2022/03/01 03:20:09;;;;;;;15.43;10.30;;;;;;;4.81;49.85;102682.66;5210459;28;20048;-74
2022/03/01 03:22:41;;;;;;;17.93;11.97;;;;;;;4.97;49.89;102699.00;5209832;28;20030;-74
2022/03/01 03:25:13;;;;;;;15.80;11.00;;;;;;;4.91;51.55;102693.84;5210457;28;20095;-74
2022/03/01 03:27:44;;;;;;;15.77;11.47;;;;;;;4.85;52.59;102697.34;5209286;28;20045;-74
2022/03/01 03:30:15;;;;;;;20.20;11.97;;;;;;;4.95;51.57;102682.56;5209592;28;20030;-74
2022/03/01 03:32:46;;;;;;;17.83;11.73;;;;;;;4.88;52.69;102683.47;5210283;28;20057;-74
2022/03/01 03:35:18;;;;;;;17.00;11.07;;;;;;;4.92;52.76;102686.03;5210152;28;20044;-74
2022/03/01 03:37:49;;;;;;;15.40;11.17;;;;;;;4.72;52.50;102658.47;5209879;28;20030;-74
2022/03/01 03:40:21;;;;;;;19.93;11.97;;;;;;;4.82;53.16;102686.97;5210207;28;20065;-74
2022/03/01 03:42:52;;;;;;;19.30;13.10;;;;;;;4.77;53.98;102689.59;5209483;28;20595;-74
2022/03/01 03:45:23;;;;;;;18.57;12.27;;;;;;;4.75;53.32;102688.72;5209367;28;20133;-74
2022/03/01 03:47:55;;;;;;;14.80;11.40;;;;;;;4.80;51.14;102693.91;5210587;28;20029;-74
2022/03/01 03:50:26;;;;;;;18.77;11.33;;;;;;;4.44;52.83;102688.88;5191984;28;20040;-74
2022/03/01 03:52:58;;;;;;;22.97;12.90;;;;;;;4.56;51.29;102677.56;5210194;28;20528;-74
2022/03/01 03:55:29;;;;;;;17.67;11.73;;;;;;;4.76;52.61;102694.78;5208508;28;20042;-74
2022/03/01 03:58:00;;;;;;;16.37;11.57;;;;;;;4.59;51.72;102687.97;5208662;28;20108;-75
2022/03/01 04:00:32;;;;;;;16.23;11.47;;;;;;;4.59;52.23;102680.19;5209893;28;20856;-74
2022/03/01 04:03:03;;;;;;;18.60;12.37;;;;;;;4.58;53.39;102687.09;5192189;28;20026;-74
2022/03/01 04:05:35;;;;;;;19.67;11.23;;;;;;;4.54;52.35;102681.94;5210062;28;20108;-74
2022/03/01 04:08:07;;;;;;;16.87;12.17;;;;;;;4.68;52.87;102687.03;5191745;28;20041;-74
2022/03/01 04:10:38;;;;;;;20.80;12.57;;;;;;;4.58;54.05;102694.88;5192088;28;20113;-74
2022/03/01 04:13:10;;;;;;;20.30;12.67;;;;;;;4.75;51.34;102696.53;5208859;28;20156;-74
2022/03/01 04:15:41;;;;;;;20.73;12.17;;;;;;;4.70;51.55;102685.31;5214129;28;20030;-74
2022/03/01 04:18:13;;;;;;;20.17;11.30;;;;;;;4.67;50.15;102687.91;5213183;28;20056;-74
2022/03/01 04:20:44;;;;;;;20.53;11.90;;;;;;;4.60;53.15;102695.75;5213979;28;20036;-74
2022/03/01 04:23:16;;;;;;;15.87;11.40;;;;;;;4.74;51.86;102697.41;5213335;28;20033;-74
2022/03/01 04:25:47;;;;;;;19.20;11.80;;;;;;;4.76;51.52;102694.78;5213740;28;20030;-74
2022/03/01 04:28:19;;;;;;;16.13;11.90;;;;;;;4.69;51.89;102699.16;5211894;28;20030;-74
2022/03/01 04:30:50;;;;;;;17.03;11.53;;;;;;;4.59;52.33;102699.19;5213771;28;20180;-74
2022/03/01 04:33:21;;;;;;;17.87;12.77;;;;;;;4.66;54.28;102710.41;5212897;28;20032;-74
2022/03/01 04:35:54;;;;;;;17.60;12.17;;;;;;;4.76;53.01;102700.00;5213438;28;20079;-74
2022/03/01 04:38:25;;;;;;;19.53;12.57;;;;;;;4.67;54.36;102700.91;5213437;28;20046;-74
2022/03/01 04:40:57;;;;;;;22.33;12.70;;;;;;;4.66;54.34;102704.38;5213048;28;20038;-74
2022/03/01 04:43:28;;;;;;;16.87;11.53;;;;;;;4.84;52.51;102695.63;5212218;28;20026;-74
2022/03/01 04:45:59;;;;;;;21.87;12.20;;;;;;;4.62;51.67;102676.69;5212974;28;20030;-74
2022/03/01 04:48:31;;;;;;;19.07;12.47;;;;;;;4.87;52.49;102697.34;5212757;28;20576;-74
2022/03/01 04:51:02;;;;;;;17.90;11.90;;;;;;;4.85;54.15;102697.34;5212682;28;20021;-74
2022/03/01 04:53:33;;;;;;;17.47;11.90;;;;;;;4.84;52.78;102688.69;5213238;28;20022;-74
2022/03/01 04:56:05;;;;;;;17.27;12.17;;;;;;;4.80;51.70;102688.72;5212014;28;20030;-74
2022/03/01 04:58:36;;;;;;;20.87;12.60;;;;;;;4.80;52.50;102684.38;5211878;28;20022;-74
2022/03/01 05:01:07;;;;;;;19.10;10.60;;;;;;;4.82;53.98;102684.38;5212611;28;20492;-74
2022/03/01 05:03:38;;;;;;;16.57;11.97;;;;;;;4.65;51.46;102677.53;5212651;28;20040;-74
2022/03/01 05:06:10;;;;;;;23.57;13.80;;;;;;;4.75;52.19;102680.09;5212775;28;20022;-74
2022/03/01 05:08:41;;;;;;;24.20;12.63;;;;;;;4.83;52.24;102686.94;5194556;28;20092;-74
2022/03/01 05:11:12;;;;;;;16.77;12.27;;;;;;;4.78;54.14;102680.09;5212045;28;20033;-74
2022/03/01 05:13:44;;;;;;;19.33;11.77;;;;;;;4.73;54.47;102682.69;5211568;28;20407;-74
2022/03/01 05:16:15;;;;;;;16.57;11.63;;;;;;;4.79;52.69;102680.06;5212608;28;20451;-74
2022/03/01 05:18:46;;;;;;;19.23;12.60;;;;;;;4.80;53.46;102676.59;5212747;28;20057;-74
2022/03/01 05:21:17;;;;;;;18.83;12.50;;;;;;;4.65;53.42;102677.53;5212039;28;20097;-74
2022/03/01 05:23:49;;;;;;;16.90;11.43;;;;;;;4.74;51.55;102662.78;5212531;28;20092;-74
2022/03/01 05:26:20;;;;;;;14.43;11.23;;;;;;;4.77;53.78;102681.81;5211143;28;20030;-74
2022/03/01 05:28:51;;;;;;;16.60;11.43;;;;;;;4.65;53.58;102674.09;5194218;28;20030;-74
2022/03/01 05:31:23;;;;;;;22.00;11.97;;;;;;;4.69;50.74;102665.41;5211486;28;20029;-74
2022/03/01 05:33:54;;;;;;;20.67;12.40;;;;;;;4.68;50.66;102664.53;5212477;28;20056;-74
2022/03/01 05:36:25;;;;;;;20.10;12.70;;;;;;;4.67;50.59;102661.97;5211784;28;20401;-74
2022/03/01 05:38:57;;;;;;;16.57;11.37;;;;;;;4.74;49.55;102661.06;5212198;28;20034;-74
2022/03/01 05:41:28;;;;;;;20.67;12.83;;;;;;;4.79;49.83;102661.03;5194398;28;20029;-74
2022/03/01 05:43:59;;;;;;;18.07;12.10;;;;;;;4.83;48.82;102650.59;5211185;28;20385;-74
2022/03/01 05:46:31;;;;;;;20.17;12.50;;;;;;;4.78;48.86;102654.97;5194038;28;20057;-74
2022/03/01 05:49:02;;;;;;;18.43;11.63;;;;;;;4.82;49.07;102654.09;5211786;28;20032;-74
2022/03/01 05:51:34;;;;;;;20.10;13.40;;;;;;;4.74;48.92;102653.28;5211893;28;20068;-74
2022/03/01 05:54:05;;;;;;;22.30;12.80;;;;;;;4.65;48.58;102636.03;5211388;28;20037;-74
2022/03/01 05:56:36;;;;;;;17.00;11.90;;;;;;;4.74;48.92;102655.00;5211107;28;20068;-74
2022/03/01 05:59:08;;;;;;;23.97;12.57;;;;;;;4.90;49.14;102658.38;5210658;28;20026;-74
2022/03/01 06:01:39;;;;;;;17.03;11.67;;;;;;;4.84;49.48;102659.25;5211582;28;20026;-74
2022/03/01 06:04:10;;;;;;;21.77;13.03;;;;;;;4.84;48.59;102651.47;5211961;28;20683;-74
2022/03/01 06:06:41;;;;;;;19.43;12.20;;;;;;;4.83;48.49;102640.22;5211415;28;20057;-74
2022/03/01 06:09:13;;;;;;;17.00;11.87;;;;;;;4.94;49.22;102652.28;5211267;28;20033;-74
2022/03/01 06:11:44;;;;;;;17.83;12.80;;;;;;;5.03;49.19;102656.53;5193187;28;20026;-74
2022/03/01 06:14:16;;;;;;;18.27;11.97;;;;;;;4.91;49.70;102650.56;5210536;28;20034;-74
2022/03/01 06:16:48;;;;;;;17.47;10.67;;;;;;;4.84;49.39;102648.88;5211269;28;20025;-74
2022/03/01 06:19:19;;;;;;;19.27;11.90;;;;;;;5.00;49.51;102649.66;5211450;28;21083;-74
2022/03/01 06:21:52;;;;;;;18.90;13.67;;;;;;;4.82;51.65;102654.09;5213793;28;20091;-74
2022/03/01 06:24:23;;;;;;;23.40;13.10;;;;;;;4.85;52.22;102653.22;5213435;28;20049;-74
2022/03/01 06:26:54;;;;;;;19.53;12.57;;;;;;;4.78;52.54;102649.78;5211007;28;20018;-75
2022/03/01 06:29:26;;;;;;;20.23;13.97;;;;;;;4.77;53.66;102645.47;5192577;28;20178;-74
2022/03/01 06:31:57;;;;;;;20.77;13.60;;;;;;;4.77;52.07;102661.03;5208117;28;20029;-74
2022/03/01 06:34:28;;;;;;;22.57;13.23;;;;;;;4.67;52.24;102665.44;5210592;28;20388;-74
2022/03/01 06:37:00;;;;;;;19.97;12.23;;;;;;;4.75;52.94;102667.97;5194525;28;20074;-74
2022/03/01 06:39:32;;;;;;;20.40;12.47;;;;;;;4.76;53.46;102668.84;5190292;28;20023;-74
2022/03/01 06:42:04;;;;;;;20.77;12.77;;;;;;;4.74;52.20;102666.25;5188709;28;20034;-73
2022/03/01 06:44:36;;;;;;;17.93;12.63;;;;;;;4.70;52.67;102685.31;5209736;28;20795;-74
2022/03/01 06:47:07;;;;;;;20.53;13.47;;;;;;;4.70;53.67;102683.56;5210652;28;20037;-73
2022/03/01 06:49:39;;;;;;;20.20;13.73;;;;;;;4.82;50.87;102681.78;5211053;28;20048;-73
2022/03/01 06:52:10;;;;;;;19.63;13.67;;;;;;;4.71;52.14;102680.09;5197801;28;20034;-73
2022/03/01 06:54:41;;;;;;;23.57;13.57;;;;;;;4.82;52.20;102674.84;5185487;28;20025;-75
2022/03/01 06:57:12;;;;;;;20.00;14.20;;;;;;;4.72;53.81;102693.94;5220343;28;20034;-75
2022/03/01 06:59:44;;;;;;;23.87;12.70;;;;;;;4.92;52.11;102695.59;5211469;28;20044;-74
2022/03/01 07:02:15;;;;;;;20.63;13.50;;;;;;;4.86;52.66;102695.59;5186138;28;20038;-75
2022/03/01 07:04:46;;;;;;;19.97;13.03;;;;;;;4.84;51.28;102696.47;5199766;28;20052;-75
2022/03/01 07:07:17;;;;;;;25.60;14.20;;;;;;;4.89;51.25;102690.38;5200090;28;20048;-75
2022/03/01 07:09:49;;;;;;;20.70;13.37;;;;;;;4.98;50.89;102698.13;5200727;28;20033;-75
2022/03/01 07:12:20;;;;;;;28.03;15.07;;;;;;;4.96;50.62;102694.66;5195935;28;20528;-76
2022/03/01 07:14:53;;;;;;;19.47;13.07;;;;;;;4.99;50.89;102694.69;5209429;28;20042;-78
2022/03/01 07:17:24;;;;;;;22.27;14.10;;;;;;;4.86;50.12;102690.41;5192017;28;20087;-76
2022/03/01 07:19:56;;;;;;;24.63;13.93;;;;;;;5.05;49.25;102697.22;5210437;28;20026;-73
2022/03/01 07:22:27;;;;;;;21.73;13.50;;;;;;;4.91;50.15;102689.50;5209719;28;20026;-71
2022/03/01 07:24:58;;;;;;;21.33;13.60;;;;;;;4.94;50.32;102688.66;5210208;28;20034;-74
2022/03/01 07:27:30;;;;;;;25.10;14.60;;;;;;;5.07;50.59;102695.47;5206531;28;20719;-76
2022/03/01 07:30:01;;;;;;;22.17;15.07;;;;;;;4.97;50.91;102701.59;5196867;28;20041;-74
2022/03/01 07:32:33;;;;;;;22.47;15.03;;;;;;;5.08;50.31;102702.38;5191499;28;20477;-73
2022/03/01 07:35:04;;;;;;;23.87;15.03;;;;;;;5.01;50.61;102698.09;5209362;28;20042;-76
2022/03/01 07:37:37;;;;;;;31.20;15.63;;;;;;;5.17;49.87;102705.78;5210403;28;20037;-77
2022/03/01 07:40:11;;;;;;;41.10;16.83;;;;;;;5.07;49.78;102713.66;5191685;28;20523;-77
2022/03/01 07:42:43;;;;;;;56.50;17.38;;;;;;;5.13;50.69;102717.09;5208881;28;20432;-78
2022/03/01 07:45:15;;;;;;;47.17;17.20;;;;;;;5.31;50.38;102724.75;5199956;28;20030;-75
2022/03/01 07:47:46;;;;;;;46.60;17.63;;;;;;;5.29;49.70;102730.81;5210128;28;20029;-75
2022/03/01 07:50:18;;;;;;;40.87;15.97;;;;;;;5.16;49.62;102723.13;5214068;28;20064;-75
2022/03/01 07:52:50;;;;;;;41.10;16.43;;;;;;;5.15;50.35;102707.56;5212666;28;20113;-75
2022/03/01 07:55:22;;;;;;;51.17;17.27;;;;;;;5.15;49.96;102704.97;5213505;28;20029;-75
2022/03/01 07:57:53;;;;;;;37.70;16.90;;;;;;;5.24;49.78;102707.47;5212758;28;20092;-75
2022/03/01 08:00:25;;;;;;;33.57;14.70;;;;;;;5.16;50.71;102698.88;5212786;28;20436;-75
2022/03/01 08:02:56;;;;;;;21.57;13.67;;;;;;;5.19;49.67;102702.31;5213026;28;20456;-75
2022/03/01 08:05:27;;;;;;;20.47;14.17;;;;;;;5.17;49.81;102700.59;5212778;28;20054;-75
2022/03/01 08:07:59;;;;;;;19.67;13.07;;;;;;;5.17;49.52;102711.00;5213051;28;20058;-76
2022/03/01 08:10:30;;;;;;;25.10;14.33;;;;;;;5.23;49.26;102720.47;5210684;28;20480;-74
2022/03/01 08:13:01;;;;;;;18.23;12.97;;;;;;;5.24;49.37;102717.00;5211351;28;20496;-76
2022/03/01 08:15:33;;;;;;;22.67;14.07;;;;;;;5.21;49.64;102715.31;5212986;28;20033;-76
2022/03/01 08:18:04;;;;;;;21.57;13.57;;;;;;;5.19;50.44;102715.31;5212952;28;20068;-76
2022/03/01 08:20:35;;;;;;;21.60;14.73;;;;;;;5.36;49.72;102710.88;5212734;28;20362;-78
2022/03/01 08:23:07;;;;;;;23.93;15.23;;;;;;;5.38;49.37;102715.19;5212585;28;20034;-78
2022/03/01 08:25:38;;;;;;;21.13;14.07;;;;;;;5.56;49.17;102718.50;5194955;28;20061;-78
2022/03/01 08:28:11;;;;;;;26.77;14.57;;;;;;;5.43;49.60;102717.72;5212194;28;20105;-78
2022/03/01 08:30:43;;;;;;;22.50;13.33;;;;;;;5.52;49.48;102722.88;5212279;28;20439;-77
2022/03/01 08:33:18;;;;;;;23.53;14.43;;;;;;;5.66;49.41;102720.16;5208011;28;20034;-79
2022/03/01 08:35:50;;;;;;;23.30;15.90;;;;;;;5.77;49.19;102721.78;5192472;28;20979;-78
2022/03/01 08:38:22;;;;;;;22.60;13.77;;;;;;;5.90;48.40;102719.94;5209635;28;20017;-78
2022/03/01 08:40:54;;;;;;;18.73;13.53;;;;;;;5.87;48.65;102722.56;5194632;28;20088;-78
2022/03/01 08:43:25;;;;;;;22.67;13.93;;;;;;;5.99;48.71;102727.66;5223273;28;20022;-75
2022/03/01 08:45:57;;;;;;;19.57;13.53;;;;;;;6.07;48.27;102724.16;5215542;28;20049;-76
2022/03/01 08:48:28;;;;;;;20.63;13.60;;;;;;;6.09;50.38;102731.03;5222007;28;21147;-76
2022/03/01 08:50:59;;;;;;;20.40;13.43;;;;;;;6.07;48.76;102732.81;5231760;28;20052;-76
2022/03/01 08:53:32;;;;;;;21.83;13.97;;;;;;;6.28;47.82;102744.72;5210621;28;20477;-76
2022/03/01 08:56:03;;;;;;;23.33;14.70;;;;;;;6.39;47.67;102736.78;5216657;28;20022;-76
2022/03/01 08:58:34;;;;;;;18.80;13.03;;;;;;;6.45;46.44;102730.66;5191223;28;20076;-76
2022/03/01 09:01:06;;;;;;;22.30;14.00;;;;;;;6.73;47.05;102753.75;5224706;28;20041;-76
2022/03/01 09:03:38;;;;;;;23.60;12.77;;;;;;;6.93;46.43;102747.41;5230763;28;20029;-76
2022/03/01 09:06:09;;;;;;;18.67;13.30;;;;;;;7.09;46.77;102753.28;5227869;28;20053;-76
2022/03/01 09:08:40;;;;;;;20.90;11.70;;;;;;;7.35;45.76;102753.75;5231506;28;20087;-76
2022/03/01 09:11:12;;;;;;;18.27;13.30;;;;;;;7.63;45.98;102750.72;5222916;28;20030;-76
2022/03/01 09:13:43;;;;;;;16.63;12.03;;;;;;;7.91;44.55;102758.06;5217011;28;20085;-76
2022/03/01 09:16:15;;;;;;;22.67;12.20;;;;;;;8.33;43.57;102759.06;5229338;28;20438;-77
2022/03/01 09:18:46;;;;;;;20.30;12.77;;;;;;;8.41;43.37;102744.09;5219624;28;20030;-76
2022/03/01 09:21:18;;;;;;;17.13;12.90;;;;;;;8.45;42.36;102747.50;5220122;28;20029;-76
2022/03/01 09:23:49;;;;;;;17.83;13.30;;;;;;;8.39;42.20;102727.63;5231344;28;21149;-76
2022/03/01 09:26:20;;;;;;;19.53;12.40;;;;;;;8.21;42.95;102742.75;5229351;28;20021;-76
2022/03/01 09:28:51;;;;;;;18.67;13.00;;;;;;;8.31;42.55;102748.63;5217029;28;20076;-76
2022/03/01 09:31:23;;;;;;;21.20;12.23;;;;;;;8.18;43.03;102750.66;5220040;28;20026;-76
2022/03/01 09:33:54;;;;;;;22.33;14.13;;;;;;;8.09;42.40;102741.25;5220753;28;20081;-76
2022/03/01 09:36:25;;;;;;;20.30;12.77;;;;;;;8.03;43.60;102745.72;5230032;28;20033;-77
2022/03/01 09:38:57;;;;;;;21.57;13.57;;;;;;;8.00;43.08;102736.19;5232245;28;20515;-76
2022/03/01 09:41:31;;;;;;;18.83;12.87;;;;;;;8.01;43.33;102743.13;5205318;28;20032;-76
2022/03/01 09:44:03;;;;;;;24.83;14.02;;;;;;;8.04;43.16;102742.19;5218606;28;20033;-77
2022/03/01 09:46:34;;;;;;;18.73;12.30;;;;;;;8.20;42.82;102741.00;5232431;28;20034;-77
2022/03/01 09:49:06;;;;;;;19.13;12.43;;;;;;;8.21;42.66;102747.97;5227092;28;20052;-77
2022/03/01 09:51:41;;;;;;;24.77;13.93;;;;;;;8.31;42.48;102760.81;5224087;28;20033;-76
2022/03/01 09:54:12;;;;;;;22.30;13.85;;;;;;;8.37;42.61;102758.13;5213763;28;20052;-76
2022/03/01 09:56:44;;;;;;;15.60;11.77;;;;;;;8.31;42.22;102755.59;5218026;28;20129;-76
2022/03/01 09:59:15;;;;;;;23.00;12.87;;;;;;;8.48;42.36;102756.13;5214967;28;20041;-77
2022/03/01 10:01:51;;;;;;;20.63;12.80;;;;;;;8.54;42.33;102741.22;5233459;28;20029;-76
2022/03/01 10:04:25;;;;;;;19.17;13.43;;;;;;;8.37;42.03;102759.84;5196796;28;20616;-77
2022/03/01 10:06:56;;;;;;;26.23;12.87;;;;;;;8.42;42.65;102758.88;5221286;28;20044;-77
2022/03/01 10:09:28;;;;;;;20.57;13.30;;;;;;;8.45;42.75;102764.03;5224416;28;20284;-77
2022/03/01 10:12:04;;;;;;;24.13;13.07;;;;;;;8.69;42.36;102756.63;5212936;28;20092;-79
2022/03/01 10:14:35;;;;;;;21.00;12.63;;;;;;;8.57;42.13;102768.19;5201629;28;20057;-78
2022/03/01 10:17:13;;;;;;;20.40;12.50;;;;;;;8.57;42.17;102754.28;5209629;28;20045;-79
2022/03/01 10:19:44;;;;;;;19.37;11.77;;;;;;;8.46;41.38;102765.78;5197042;28;20033;-79
2022/03/01 10:22:15;;;;;;;23.23;12.67;;;;;;;8.64;41.38;102758.47;5208265;28;20030;-76
2022/03/01 10:24:48;;;;;;;19.87;12.67;;;;;;;8.74;41.99;102758.28;5213320;28;20046;-75
2022/03/01 10:27:28;;;;;;;18.10;13.40;;;;;;;8.87;42.65;102745.81;5212663;28;20033;-77
2022/03/01 10:30:02;;;;;;;23.67;13.17;;;;;;;8.83;41.90;102753.72;5208923;28;20045;-74
2022/03/01 10:32:34;;;;;;;22.60;14.15;;;;;;;8.86;40.90;102742.34;5211215;28;20026;-77
2022/03/01 10:35:07;;;;;;;17.13;12.83;;;;;;;8.97;41.06;102754.31;5193642;28;20511;-75
2022/03/01 10:37:40;;;;;;;31.70;12.70;;;;;;;9.07;40.84;102734.91;5209663;28;20025;-75
2022/03/01 10:40:14;;;;;;;19.67;12.47;;;;;;;9.16;41.01;102734.69;5208200;28;20009;-75
2022/03/01 10:42:58;;;;;;;16.52;12.57;;;;;;;9.50;41.80;102743.47;5206878;28;20720;-74
2022/03/01 10:45:40;;;;;;;17.15;13.52;;;;;;;9.54;41.46;102749.50;5209932;28;20018;-75
2022/03/01 10:48:23;;;;;;;19.17;12.60;;;;;;;9.46;40.52;102746.22;5207387;28;20068;-73
2022/03/01 10:51:08;;;;;;;16.97;12.37;;;;;;;9.78;40.56;102742.78;5210507;28;20022;-73
2022/03/01 10:53:42;;;;;;;19.33;12.67;;;;;;;9.86;39.75;102742.56;5215174;28;20129;-74
2022/03/01 10:56:15;;;;;;;17.05;11.60;;;;;;;9.96;39.09;102753.69;5214319;28;20469;-75
2022/03/01 10:58:48;;;;;;;17.73;12.87;;;;;;;10.05;39.19;102749.97;5217350;28;20025;-78
2022/03/01 11:01:20;;;;;;;21.27;14.67;;;;;;;10.29;39.37;102760.66;5221982;28;20066;-80
2022/03/01 11:03:52;;;;;;;17.73;13.20;;;;;;;10.34;39.61;102756.16;5202050;28;20033;-81
2022/03/01 11:06:23;;;;;;;24.07;13.03;;;;;;;10.35;39.07;102752.63;5211994;28;20026;-81
2022/03/01 11:08:55;;;;;;;15.50;11.37;;;;;;;10.58;39.13;102747.66;5210079;28;20014;-81
2022/03/01 11:11:27;;;;;;;17.80;12.53;;;;;;;10.64;38.56;102753.59;5207857;28;20105;-81
2022/03/01 11:14:01;;;;;;;17.03;12.40;;;;;;;10.56;39.01;102749.47;5208928;28;20044;-83
2022/03/01 11:16:59;;;;;;;18.30;12.25;;;;;;;10.85;39.37;102752.97;5204797;28;20026;-82
2022/03/01 11:19:50;;;;;;;20.30;13.03;;;;;;;10.74;39.78;102748.06;5208835;28;20117;-81
2022/03/01 11:22:26;;;;;;;16.33;12.23;;;;;;;10.74;39.14;102754.16;5208944;28;20030;-75
2022/03/01 11:24:58;;;;;;;20.13;13.50;;;;;;;10.74;39.36;102758.53;5209221;28;20034;-75
2022/03/01 11:27:29;;;;;;;17.10;13.23;;;;;;;10.77;38.89;102747.97;5208496;28;20041;-75
2022/03/01 11:30:08;;;;;;;20.47;13.33;;;;;;;10.98;40.26;102748.22;5208478;28;20108;-76
2022/03/01 11:32:43;;;;;;;18.90;12.47;;;;;;;10.91;40.20;102749.31;5210840;28;20117;-74
2022/03/01 11:35:16;;;;;;;;;;;;;;;11.48;39.01;102759.78;5206347;28;20042;-75
2022/03/01 11:38:00;;;;;;;20.10;13.30;;;;;;;10.97;40.15;102751.75;5210311;28;20418;-76